createdAt,value
2023-01-13T00:00:19.744Z,68.68
2023-01-13T00:03:22.161Z,68.65
2023-01-13T00:06:29.284Z,68.64
2023-01-13T00:09:30.842Z,68.75
2023-01-13T00:12:32.442Z,68.75
2023-01-13T00:15:34.226Z,68.84
2023-01-13T00:18:36.921Z,69.06
2023-01-13T00:21:38.530Z,69.14
2023-01-13T00:24:40.071Z,69.05
2023-01-13T00:27:41.903Z,69.08
2023-01-13T00:30:43.428Z,68.90
2023-01-13T00:33:45.415Z,69.09
2023-01-13T00:36:46.952Z,69.11
2023-01-13T00:39:48.520Z,69.12
2023-01-13T00:43:08.552Z,69.27
2023-01-13T00:46:12.617Z,69.30
2023-01-13T00:49:14.156Z,69.37
2023-01-13T00:52:16.279Z,69.38
2023-01-13T00:55:17.847Z,69.44
2023-01-13T00:58:19.348Z,69.81
2023-01-13T01:01:22.831Z,69.53
2023-01-13T01:04:24.432Z,69.47
2023-01-13T01:07:25.930Z,69.47
2023-01-13T01:10:27.519Z,69.67
2023-01-13T01:13:29.253Z,69.60
2023-01-13T01:16:32.143Z,69.60
2023-01-13T01:19:37.334Z,69.59
2023-01-13T01:22:38.840Z,69.55
2023-01-13T01:25:40.367Z,69.67
2023-01-13T01:28:42.880Z,69.51
2023-01-13T01:31:44.700Z,69.65
2023-01-13T01:34:46.277Z,69.42
2023-01-13T01:37:47.789Z,69.63
2023-01-13T01:40:49.614Z,69.50
2023-01-13T01:44:06.992Z,69.52
2023-01-13T01:47:14.527Z,69.48
2023-01-13T01:50:17.492Z,69.48
2023-01-13T01:53:20.615Z,69.42
2023-01-13T01:56:22.342Z,69.54
2023-01-13T01:59:25.558Z,69.48
2023-01-13T02:02:30.738Z,69.40
2023-01-13T02:05:34.293Z,69.49
2023-01-13T02:08:38.649Z,69.56
2023-01-13T02:11:58.745Z,69.66
2023-01-13T02:15:17.590Z,69.42
2023-01-13T02:18:46.932Z,69.44
2023-01-13T02:22:07.157Z,69.52
2023-01-13T02:25:25.587Z,69.51
2023-01-13T02:29:14.201Z,69.47
2023-01-13T02:32:33.119Z,69.47
2023-01-13T02:35:43.715Z,69.58
2023-01-13T02:38:52.508Z,69.59
2023-01-13T02:42:26.018Z,69.60
2023-01-13T02:45:36.965Z,69.64
2023-01-13T02:48:39.719Z,69.61
2023-01-13T02:51:44.270Z,69.63
2023-01-13T02:54:54.150Z,69.77
2023-01-13T02:57:59.447Z,69.66
2023-01-13T03:01:01.042Z,69.65
2023-01-13T03:04:35.380Z,69.64
2023-01-13T03:07:42.589Z,69.68
2023-01-13T03:11:01.272Z,69.69
2023-01-13T03:14:11.598Z,69.60
2023-01-13T03:17:36.129Z,69.56
2023-01-13T03:20:44.029Z,69.65
2023-01-13T03:23:54.517Z,69.65
2023-01-13T03:27:05.974Z,69.81
2023-01-13T03:30:13.609Z,69.80
2023-01-13T03:33:23.831Z,69.72
2023-01-13T03:36:28.021Z,69.71
2023-01-13T03:39:34.848Z,69.41
2023-01-13T03:42:39.317Z,69.55
2023-01-13T03:45:43.268Z,69.71
2023-01-13T03:48:46.518Z,69.73
2023-01-13T03:51:55.274Z,69.65
2023-01-13T03:55:11.825Z,69.73
2023-01-13T03:58:22.944Z,69.67
2023-01-13T04:01:45.659Z,69.63
2023-01-13T04:04:47.171Z,70.07
2023-01-13T04:07:54.426Z,69.70
2023-01-13T04:11:20.095Z,69.66
2023-01-13T04:14:24.518Z,69.78
2023-01-13T04:17:28.613Z,69.78
2023-01-13T04:20:30.432Z,69.71
2023-01-13T04:23:32.848Z,69.75
2023-01-13T04:26:34.360Z,69.85
2023-01-13T04:29:35.821Z,70.03
2023-01-13T04:32:37.324Z,70.12
2023-01-13T04:35:39.118Z,70.11
2023-01-13T04:38:40.595Z,70.49
2023-01-13T04:42:02.278Z,69.97
2023-01-13T04:45:04.074Z,70.02
2023-01-13T04:48:05.871Z,70.01
2023-01-13T04:51:07.406Z,69.96
2023-01-13T04:54:11.259Z,70.00
2023-01-13T04:57:12.803Z,69.91
2023-01-13T05:00:17.224Z,69.87
2023-01-13T05:03:18.798Z,69.90
2023-01-13T05:06:20.351Z,69.87
2023-01-13T05:09:21.824Z,69.97
2023-01-13T05:12:42.247Z,70.04
2023-01-13T05:16:02.182Z,69.94
2023-01-13T05:19:03.756Z,70.02
2023-01-13T05:22:24.008Z,70.01
2023-01-13T05:25:27.280Z,70.02
2023-01-13T05:28:33.511Z,69.88
2023-01-13T05:31:35.081Z,70.07
2023-01-13T05:34:36.696Z,70.02
2023-01-13T05:37:38.322Z,69.85
2023-01-13T05:40:59.714Z,70.01
2023-01-13T05:44:01.316Z,69.98
2023-01-13T05:47:02.769Z,69.74
2023-01-13T05:50:04.935Z,69.87
2023-01-13T05:53:06.479Z,69.93
2023-01-13T05:56:09.150Z,69.97
2023-01-13T05:59:10.766Z,69.92
2023-01-13T06:02:12.289Z,69.94
2023-01-13T06:05:13.912Z,69.80
2023-01-13T06:08:15.492Z,69.91
2023-01-13T06:11:16.956Z,69.89
2023-01-13T06:14:18.411Z,69.62
2023-01-13T06:17:19.958Z,69.54
2023-01-13T06:20:21.433Z,69.54
2023-01-13T06:23:23.601Z,69.43
2023-01-13T06:26:27.747Z,69.41
2023-01-13T06:29:29.210Z,69.18
2023-01-13T06:32:38.834Z,69.20
2023-01-13T06:35:43.462Z,69.16
2023-01-13T06:38:49.772Z,69.07
2023-01-13T06:42:12.568Z,69.07
2023-01-13T06:45:14.437Z,69.08
2023-01-13T06:48:17.471Z,69.04
2023-01-13T06:51:19.004Z,69.21
2023-01-13T06:54:20.489Z,69.31
2023-01-13T06:57:21.999Z,69.19
2023-01-13T07:00:25.319Z,69.11
2023-01-13T07:03:26.796Z,68.88
2023-01-13T07:06:28.828Z,69.13
2023-01-13T07:09:30.399Z,69.25
2023-01-13T07:12:51.846Z,69.05
2023-01-13T07:15:54.570Z,69.20
2023-01-13T07:18:56.227Z,69.05
2023-01-13T07:21:57.703Z,68.98
2023-01-13T07:24:59.221Z,69.21
2023-01-13T07:28:00.735Z,69.14
2023-01-13T07:31:02.781Z,69.15
2023-01-13T07:34:05.135Z,69.25
2023-01-13T07:37:06.645Z,69.12
2023-01-13T07:40:09.341Z,69.22
2023-01-13T07:43:31.238Z,69.23
2023-01-13T07:46:33.717Z,69.28
2023-01-13T07:49:35.232Z,69.26
2023-01-13T07:52:36.784Z,69.43
2023-01-13T07:55:42.735Z,69.22
2023-01-13T07:58:45.067Z,69.16
2023-01-13T08:01:46.672Z,68.96
2023-01-13T08:04:48.347Z,68.84
2023-01-13T08:07:49.870Z,68.83
2023-01-13T08:10:51.383Z,68.66
2023-01-13T08:13:57.204Z,68.52
2023-01-13T08:16:58.777Z,68.55
2023-01-13T08:20:00.285Z,68.51
2023-01-13T08:23:01.935Z,68.50
2023-01-13T08:26:06.654Z,68.41
2023-01-13T08:29:08.157Z,68.44
2023-01-13T08:32:09.645Z,68.36
2023-01-13T08:35:11.241Z,68.51
2023-01-13T08:38:12.755Z,68.70
2023-01-13T08:41:36.370Z,68.95
2023-01-13T08:44:37.923Z,69.08
2023-01-13T08:47:39.856Z,69.52
2023-01-13T08:50:41.378Z,69.77
2023-01-13T08:53:42.866Z,69.96
2023-01-13T08:56:45.581Z,70.03
2023-01-13T08:59:47.462Z,70.37
2023-01-13T09:02:48.974Z,70.56
2023-01-13T09:05:50.438Z,70.78
2023-01-13T09:08:52.059Z,70.87
2023-01-13T09:12:14.188Z,71.06
2023-01-13T09:15:18.382Z,70.83
2023-01-13T09:18:19.933Z,71.09
2023-01-13T09:21:22.471Z,71.19
2023-01-13T09:24:24.988Z,71.38
2023-01-13T09:27:26.485Z,71.20
2023-01-13T09:30:28.288Z,71.14
2023-01-13T09:33:48.328Z,71.12
2023-01-13T09:36:50.624Z,71.25
2023-01-13T09:39:52.090Z,71.12
2023-01-13T09:43:17.875Z,71.08
2023-01-13T09:46:47.395Z,71.25
2023-01-13T09:49:49.072Z,71.08
2023-01-13T09:52:50.888Z,70.99
2023-01-13T09:55:52.965Z,70.87
2023-01-13T09:58:54.586Z,70.70
2023-01-13T10:02:30.996Z,70.44
2023-01-13T10:05:32.454Z,70.32
2023-01-13T10:08:45.363Z,70.17
2023-01-13T10:12:07.538Z,70.12
2023-01-13T10:15:17.290Z,70.10
2023-01-13T10:18:27.673Z,70.01
2023-01-13T10:21:48.853Z,69.90
2023-01-13T10:25:02.596Z,69.86
2023-01-13T10:28:18.433Z,69.66
2023-01-13T10:31:22.189Z,69.92
2023-01-13T10:34:24.930Z,69.52
2023-01-13T10:37:28.352Z,69.41
2023-01-13T10:40:29.891Z,69.35
2023-01-13T10:43:31.917Z,69.08
2023-01-13T10:46:35.725Z,68.89
2023-01-13T10:49:38.620Z,68.83
2023-01-13T10:52:55.178Z,68.97
2023-01-13T10:56:01.988Z,69.40
2023-01-13T10:59:13.465Z,69.27
2023-01-13T11:02:30.522Z,69.28
2023-01-13T11:05:32.186Z,69.09
2023-01-13T11:08:45.417Z,62.81
2023-01-13T11:11:49.533Z,60.05
2023-01-13T11:14:52.111Z,58.56
2023-01-13T11:18:35.124Z,56.07
2023-01-13T11:21:39.282Z,55.45
2023-01-13T11:24:45.890Z,54.20
2023-01-13T11:27:55.561Z,53.67
2023-01-13T11:31:13.275Z,54.50
2023-01-13T11:34:20.778Z,54.97
2023-01-13T11:37:39.916Z,53.55
2023-01-13T11:40:45.913Z,53.77
2023-01-13T11:43:56.408Z,54.66
2023-01-13T11:46:58.062Z,54.64
2023-01-13T11:50:00.999Z,55.37
2023-01-13T11:53:39.937Z,56.30
2023-01-13T11:57:19.138Z,57.34
2023-01-13T12:00:31.742Z,58.10
2023-01-13T12:03:38.310Z,58.49
2023-01-13T12:06:41.321Z,58.92
2023-01-13T12:10:03.468Z,59.53
2023-01-13T12:13:24.022Z,59.88
2023-01-13T12:16:28.452Z,60.38
2023-01-13T12:19:32.287Z,60.99
2023-01-13T12:22:36.823Z,61.46
2023-01-13T12:25:45.435Z,61.91
2023-01-13T12:29:07.631Z,62.04
2023-01-13T12:32:15.336Z,62.58
2023-01-13T12:35:37.601Z,62.92
2023-01-13T12:38:48.003Z,63.24
2023-01-13T12:42:32.595Z,63.32
2023-01-13T12:45:34.200Z,63.52
2023-01-13T12:48:49.256Z,63.71
2023-01-13T12:51:50.707Z,63.95
2023-01-13T12:54:53.705Z,64.08
2023-01-13T12:58:04.297Z,64.27
2023-01-13T13:01:15.493Z,64.56
2023-01-13T13:04:41.957Z,64.63
2023-01-13T13:07:49.518Z,64.83
2023-01-13T13:11:00.149Z,64.98
2023-01-13T13:14:13.746Z,65.14
2023-01-13T13:17:31.610Z,65.31
2023-01-13T13:20:57.955Z,65.56
2023-01-13T13:24:04.943Z,65.72
2023-01-13T13:27:31.454Z,65.83
2023-01-13T13:30:39.289Z,66.01
2023-01-13T13:33:58.988Z,66.34
2023-01-13T13:37:09.779Z,66.60
2023-01-13T13:40:33.893Z,66.76
2023-01-13T13:44:00.836Z,67.23
2023-01-13T13:47:04.054Z,67.52
2023-01-13T13:50:14.308Z,67.87
2023-01-13T13:53:19.006Z,67.96
2023-01-13T13:56:24.312Z,68.50
2023-01-13T13:59:30.607Z,68.90
2023-01-13T14:02:36.804Z,69.01
2023-01-13T14:05:38.327Z,69.18
2023-01-13T14:08:46.622Z,69.37
2023-01-13T14:12:02.328Z,69.34
2023-01-13T14:15:04.192Z,69.52
2023-01-13T14:18:12.561Z,69.51
2023-01-13T14:21:19.843Z,69.49
2023-01-13T14:24:22.486Z,69.59
2023-01-13T14:27:28.799Z,69.49
2023-01-13T14:30:31.381Z,69.50
2023-01-13T14:33:38.881Z,69.38
2023-01-13T14:36:41.804Z,69.24
2023-01-13T14:39:43.292Z,69.40
2023-01-13T14:42:44.796Z,69.42
2023-01-13T14:46:00.104Z,69.36
2023-01-13T14:49:02.083Z,69.34
2023-01-13T14:52:23.727Z,69.43
2023-01-13T14:55:31.207Z,69.43
2023-01-13T14:58:32.839Z,69.45
2023-01-13T15:01:36.478Z,69.31
2023-01-13T15:04:38.229Z,69.40
2023-01-13T15:07:39.784Z,69.26
2023-01-13T15:10:55.043Z,69.16
2023-01-13T15:14:01.323Z,69.09
2023-01-13T15:17:03.294Z,69.03
2023-01-13T15:20:13.441Z,68.97
2023-01-13T15:23:14.914Z,68.91
2023-01-13T15:26:21.273Z,68.81
2023-01-13T15:29:24.303Z,68.77
2023-01-13T15:32:25.938Z,68.70
2023-01-13T15:35:28.677Z,68.61
2023-01-13T15:38:30.255Z,68.59
2023-01-13T15:41:50.587Z,68.46
2023-01-13T15:45:10.410Z,68.51
2023-01-13T15:48:12.547Z,68.49
2023-01-13T15:51:14.405Z,68.28
2023-01-13T15:54:16.138Z,68.27
2023-01-13T15:57:31.733Z,68.42
2023-01-13T16:00:33.473Z,68.40
2023-01-13T16:03:34.965Z,68.39
2023-01-13T16:06:37.191Z,68.38
2023-01-13T16:09:38.669Z,68.54
2023-01-13T16:12:41.573Z,68.32
2023-01-13T16:15:46.995Z,68.27
2023-01-13T16:18:49.609Z,68.30
2023-01-13T16:21:51.139Z,68.28
2023-01-13T16:24:52.632Z,68.40
2023-01-13T16:27:54.162Z,68.46
2023-01-13T16:30:55.688Z,68.10
2023-01-13T16:33:58.427Z,68.21
2023-01-13T16:37:00.066Z,68.07
2023-01-13T16:40:02.581Z,68.02
2023-01-13T16:43:06.583Z,68.00
2023-01-13T16:46:28.860Z,67.94
2023-01-13T16:49:30.414Z,67.89
2023-01-13T16:52:31.884Z,67.89
2023-01-13T16:55:33.408Z,67.86
2023-01-13T16:58:34.865Z,68.01
2023-01-13T17:01:39.564Z,68.24
2023-01-13T17:04:41.582Z,68.52
2023-01-13T17:07:45.503Z,68.80
2023-01-13T17:10:47.428Z,69.38
2023-01-13T17:13:48.915Z,69.40
2023-01-13T17:16:52.575Z,69.75
2023-01-13T17:19:55.224Z,69.96
2023-01-13T17:22:58.462Z,69.89
2023-01-13T17:26:00.431Z,70.11
2023-01-13T17:29:09.883Z,70.19
2023-01-13T17:32:16.367Z,70.41
2023-01-13T17:35:22.796Z,70.47
2023-01-13T17:38:24.303Z,69.98
2023-01-13T17:41:26.466Z,69.55
2023-01-13T17:44:27.924Z,69.20
2023-01-13T17:47:29.480Z,68.97
2023-01-13T17:50:32.447Z,68.83
2023-01-13T17:53:34.111Z,68.69
2023-01-13T17:56:35.597Z,68.55
2023-01-13T17:59:37.133Z,68.47
2023-01-13T18:02:38.721Z,68.33
2023-01-13T18:05:41.907Z,68.32
2023-01-13T18:08:43.843Z,68.16
2023-01-13T18:11:47.297Z,68.35
2023-01-13T18:14:48.933Z,68.33
2023-01-13T18:17:50.393Z,68.19
2023-01-13T18:21:10.513Z,68.36
2023-01-13T18:24:32.987Z,68.47
2023-01-13T18:27:38.040Z,68.42
2023-01-13T18:30:39.582Z,68.29
2023-01-13T18:33:41.056Z,68.71
2023-01-13T18:36:42.633Z,68.79
2023-01-13T18:39:44.374Z,69.02
2023-01-13T18:42:54.022Z,69.17
2023-01-13T18:45:55.532Z,69.46
2023-01-13T18:48:57.090Z,69.51
2023-01-13T18:51:58.646Z,69.59
2023-01-13T18:55:00.124Z,69.82
2023-01-13T18:58:01.803Z,69.76
2023-01-13T19:01:05.655Z,69.98
2023-01-13T19:04:10.530Z,70.15
2023-01-13T19:07:16.527Z,70.25
2023-01-13T19:10:18.540Z,70.40
2023-01-13T19:13:20.082Z,70.67
2023-01-13T19:16:21.709Z,70.58
2023-01-13T19:19:23.175Z,70.97
2023-01-13T19:22:34.828Z,70.64
2023-01-13T19:25:36.917Z,70.78
2023-01-13T19:28:40.117Z,70.88
2023-01-13T19:31:41.620Z,71.12
2023-01-13T19:34:44.058Z,71.33
2023-01-13T19:37:45.765Z,71.57
2023-01-13T19:41:02.388Z,71.62
2023-01-13T19:44:22.490Z,71.73
2023-01-13T19:47:24.160Z,71.68
2023-01-13T19:50:25.714Z,71.89
2023-01-13T19:53:28.500Z,71.93
2023-01-13T19:56:30.681Z,71.89
2023-01-13T19:59:33.427Z,72.01
2023-01-13T20:02:36.592Z,72.00
2023-01-13T20:05:38.173Z,71.87
2023-01-13T20:08:40.170Z,71.85
2023-01-13T20:11:41.644Z,71.83
2023-01-13T20:14:43.627Z,71.86
2023-01-13T20:17:45.124Z,71.67
2023-01-13T20:20:46.639Z,71.99
2023-01-13T20:23:52.924Z,71.96
2023-01-13T20:26:54.991Z,71.97
2023-01-13T20:29:56.544Z,71.88
2023-01-13T20:32:58.026Z,72.12
2023-01-13T20:35:59.547Z,71.88
2023-01-13T20:39:02.138Z,72.05
2023-01-13T20:42:22.640Z,72.01
2023-01-13T20:45:25.948Z,72.04
2023-01-13T20:48:27.401Z,71.67
2023-01-13T20:51:28.896Z,71.82
2023-01-13T20:54:30.581Z,71.81
2023-01-13T20:57:32.131Z,71.73
2023-01-13T21:00:33.713Z,72.06
2023-01-13T21:03:35.262Z,72.01
2023-01-13T21:06:36.842Z,71.88
2023-01-13T21:09:38.321Z,71.78
2023-01-13T21:12:58.462Z,71.93
2023-01-13T21:16:00.068Z,71.91
2023-01-13T21:19:07.605Z,71.61
2023-01-13T21:22:09.091Z,71.92
2023-01-13T21:25:12.424Z,71.74
2023-01-13T21:28:16.097Z,71.88
2023-01-13T21:31:18.170Z,71.86
2023-01-13T21:34:19.710Z,71.89
2023-01-13T21:37:22.039Z,71.92
2023-01-13T21:40:23.545Z,71.57
2023-01-13T21:43:43.733Z,71.75
2023-01-13T21:47:03.520Z,71.88
2023-01-13T21:50:09.108Z,71.70
2023-01-13T21:53:11.010Z,71.82
2023-01-13T21:56:12.497Z,71.75
2023-01-13T21:59:14.119Z,71.81
2023-01-13T22:02:31.989Z,71.90
2023-01-13T22:05:34.147Z,72.24
2023-01-13T22:08:35.662Z,72.26
2023-01-13T22:11:37.209Z,72.36
2023-01-13T22:14:38.688Z,72.39
2023-01-13T22:17:42.106Z,72.52
2023-01-13T22:20:44.021Z,72.41
2023-01-13T22:23:45.602Z,72.48
2023-01-13T22:26:47.187Z,72.33
2023-01-13T22:29:49.932Z,72.44
2023-01-13T22:32:51.510Z,72.33
2023-01-13T22:35:55.996Z,72.31
2023-01-13T22:38:59.375Z,72.30
2023-01-13T22:42:01.063Z,72.38
2023-01-13T22:45:02.579Z,72.26
2023-01-13T22:48:04.200Z,72.31
2023-01-13T22:51:14.299Z,72.30
2023-01-13T22:54:17.594Z,72.53
2023-01-13T22:57:19.109Z,72.45
2023-01-13T23:00:20.898Z,70.45
2023-01-13T23:03:22.870Z,67.80
2023-01-13T23:06:26.441Z,66.82
2023-01-13T23:09:31.133Z,65.71
2023-01-13T23:12:32.724Z,65.40
2023-01-13T23:15:35.088Z,64.81
2023-01-13T23:18:37.438Z,64.82
2023-01-13T23:21:39.024Z,64.82
2023-01-13T23:24:40.532Z,64.85
2023-01-13T23:27:42.174Z,64.40
2023-01-13T23:30:43.664Z,63.65
2023-01-13T23:33:45.802Z,63.54
2023-01-13T23:36:47.415Z,63.86
2023-01-13T23:39:49.321Z,63.13
2023-01-13T23:42:50.843Z,63.31
2023-01-13T23:45:53.317Z,63.42
2023-01-13T23:48:55.486Z,63.63
2023-01-13T23:51:57.072Z,64.80
2023-01-13T23:54:59.183Z,65.77
2023-01-13T23:58:00.747Z,66.51
